sensor_id;sensor_type;location;lat;lon;timestamp;temperature;humidity
22676;DHT22;12521;43.310;21.876;2023-02-03T00:03:27;2.8;96.0
22676;DHT22;12521;43.310;21.876;2023-02-03T00:08:06;2.8;96.0
22676;DHT22;12521;43.310;21.876;2023-02-03T00:12:43;2.8;96.0
22676;DHT22;12521;43.310;21.876;2023-02-03T00:17:20;2.9;96.0
22676;DHT22;12521;43.310;21.876;2023-02-03T00:21:56;2.9;96.0
22676;DHT22;12521;43.310;21.876;2023-02-03T00:26:32;3.0;96.0
22676;DHT22;12521;43.310;21.876;2023-02-03T00:31:15;3.0;96.0
22676;DHT22;12521;43.310;21.876;2023-02-03T00:35:56;3.0;96.0
22676;DHT22;12521;43.310;21.876;2023-02-03T00:40:32;3.0;96.0
22676;DHT22;12521;43.310;21.876;2023-02-03T00:45:09;3.0;96.0
22676;DHT22;12521;43.310;21.876;2023-02-03T00:49:45;3.1;96.0
22676;DHT22;12521;43.310;21.876;2023-02-03T00:54:21;3.1;96.0
22676;DHT22;12521;43.310;21.876;2023-02-03T00:58:57;3.2;96.0
22676;DHT22;12521;43.310;21.876;2023-02-03T01:03:35;3.2;96.0
22676;DHT22;12521;43.310;21.876;2023-02-03T01:08:13;3.2;96.0
22676;DHT22;12521;43.310;21.876;2023-02-03T01:12:50;3.2;96.0
22676;DHT22;12521;43.310;21.876;2023-02-03T01:17:27;3.2;96.0
22676;DHT22;12521;43.310;21.876;2023-02-03T01:22:03;3.2;96.0
22676;DHT22;12521;43.310;21.876;2023-02-03T01:26:41;3.3;96.0
22676;DHT22;12521;43.310;21.876;2023-02-03T01:31:23;3.3;96.0
22676;DHT22;12521;43.310;21.876;2023-02-03T01:36:02;3.3;96.0
22676;DHT22;12521;43.310;21.876;2023-02-03T01:40:42;3.4;96.0
22676;DHT22;12521;43.310;21.876;2023-02-03T01:45:19;3.4;96.0
22676;DHT22;12521;43.310;21.876;2023-02-03T01:50:09;3.4;96.0
22676;DHT22;12521;43.310;21.876;2023-02-03T01:54:59;3.4;96.0
22676;DHT22;12521;43.310;21.876;2023-02-03T01:59:46;3.4;96.0
22676;DHT22;12521;43.310;21.876;2023-02-03T02:04:39;3.4;96.0
22676;DHT22;12521;43.310;21.876;2023-02-03T02:09:33;3.4;96.0
22676;DHT22;12521;43.310;21.876;2023-02-03T02:14:11;3.4;96.0
22676;DHT22;12521;43.310;21.876;2023-02-03T02:19:20;3.4;96.0
22676;DHT22;12521;43.310;21.876;2023-02-03T02:25:26;3.4;96.0
22676;DHT22;12521;43.310;21.876;2023-02-03T02:31:55;3.4;96.0
22676;DHT22;12521;43.310;21.876;2023-02-03T02:37:19;3.4;96.0
22676;DHT22;12521;43.310;21.876;2023-02-03T02:42:39;3.4;96.0
22676;DHT22;12521;43.310;21.876;2023-02-03T02:47:45;3.4;96.0
22676;DHT22;12521;43.310;21.876;2023-02-03T02:52:35;3.4;96.0
22676;DHT22;12521;43.310;21.876;2023-02-03T02:57:27;3.4;96.0
22676;DHT22;12521;43.310;21.876;2023-02-03T03:02:12;3.4;96.0
22676;DHT22;12521;43.310;21.876;2023-02-03T03:06:58;3.5;96.0
22676;DHT22;12521;43.310;21.876;2023-02-03T03:11:53;3.5;96.0
22676;DHT22;12521;43.310;21.876;2023-02-03T03:16:56;3.5;96.0
22676;DHT22;12521;43.310;21.876;2023-02-03T03:21:49;3.5;96.0
22676;DHT22;12521;43.310;21.876;2023-02-03T03:26:42;3.5;96.0
22676;DHT22;12521;43.310;21.876;2023-02-03T03:31:26;3.5;96.0
22676;DHT22;12521;43.310;21.876;2023-02-03T03:36:18;3.5;96.0
22676;DHT22;12521;43.310;21.876;2023-02-03T03:41:11;3.5;96.0
22676;DHT22;12521;43.310;21.876;2023-02-03T03:46:20;3.5;96.0
22676;DHT22;12521;43.310;21.876;2023-02-03T03:51:22;3.5;96.0
22676;DHT22;12521;43.310;21.876;2023-02-03T03:56:26;3.5;96.0
22676;DHT22;12521;43.310;21.876;2023-02-03T04:01:22;3.5;96.0
22676;DHT22;12521;43.310;21.876;2023-02-03T04:06:04;3.5;96.0
22676;DHT22;12521;43.310;21.876;2023-02-03T04:10:43;3.5;96.0
22676;DHT22;12521;43.310;21.876;2023-02-03T04:15:19;3.5;96.0
22676;DHT22;12521;43.310;21.876;2023-02-03T04:19:56;3.4;96.0
22676;DHT22;12521;43.310;21.876;2023-02-03T04:24:32;3.4;96.0
22676;DHT22;12521;43.310;21.876;2023-02-03T04:29:09;3.4;96.0
22676;DHT22;12521;43.310;21.876;2023-02-03T04:33:45;3.4;96.0
22676;DHT22;12521;43.310;21.876;2023-02-03T04:38:21;3.4;96.0
22676;DHT22;12521;43.310;21.876;2023-02-03T04:42:57;3.4;96.0
22676;DHT22;12521;43.310;21.876;2023-02-03T04:47:41;3.4;96.0
22676;DHT22;12521;43.310;21.876;2023-02-03T04:52:17;3.4;96.0
22676;DHT22;12521;43.310;21.876;2023-02-03T04:56:53;3.4;96.0
22676;DHT22;12521;43.310;21.876;2023-02-03T05:01:29;3.4;96.0
22676;DHT22;12521;43.310;21.876;2023-02-03T05:06:06;3.4;96.0
22676;DHT22;12521;43.310;21.876;2023-02-03T05:10:43;3.5;96.0
22676;DHT22;12521;43.310;21.876;2023-02-03T05:15:19;3.5;96.0
22676;DHT22;12521;43.310;21.876;2023-02-03T05:19:56;3.5;96.0
22676;DHT22;12521;43.310;21.876;2023-02-03T05:24:32;3.5;96.0
22676;DHT22;12521;43.310;21.876;2023-02-03T05:29:09;3.5;96.0
22676;DHT22;12521;43.310;21.876;2023-02-03T05:33:45;3.5;96.0
22676;DHT22;12521;43.310;21.876;2023-02-03T05:38:22;3.5;96.0
22676;DHT22;12521;43.310;21.876;2023-02-03T05:42:59;3.5;96.0
22676;DHT22;12521;43.310;21.876;2023-02-03T05:47:35;3.5;96.0
22676;DHT22;12521;43.310;21.876;2023-02-03T05:52:12;3.5;96.0
22676;DHT22;12521;43.310;21.876;2023-02-03T05:56:48;3.5;96.0
22676;DHT22;12521;43.310;21.876;2023-02-03T06:01:25;3.5;96.0
22676;DHT22;12521;43.310;21.876;2023-02-03T06:06:01;3.5;96.0
22676;DHT22;12521;43.310;21.876;2023-02-03T06:10:38;3.5;96.0
22676;DHT22;12521;43.310;21.876;2023-02-03T06:15:15;3.5;96.0
22676;DHT22;12521;43.310;21.876;2023-02-03T06:19:52;3.5;96.0
22676;DHT22;12521;43.310;21.876;2023-02-03T06:24:29;3.5;96.0
22676;DHT22;12521;43.310;21.876;2023-02-03T06:29:06;3.5;96.0
22676;DHT22;12521;43.310;21.876;2023-02-03T06:33:42;3.5;96.0
22676;DHT22;12521;43.310;21.876;2023-02-03T06:38:19;3.4;96.0
22676;DHT22;12521;43.310;21.876;2023-02-03T06:42:57;3.4;96.0
22676;DHT22;12521;43.310;21.876;2023-02-03T06:47:34;3.4;96.0
22676;DHT22;12521;43.310;21.876;2023-02-03T06:52:14;3.4;96.0
22676;DHT22;12521;43.310;21.876;2023-02-03T06:56:50;3.4;96.0
22676;DHT22;12521;43.310;21.876;2023-02-03T07:01:26;3.4;96.0
22676;DHT22;12521;43.310;21.876;2023-02-03T07:06:04;3.4;96.0
22676;DHT22;12521;43.310;21.876;2023-02-03T07:10:41;3.4;96.0
22676;DHT22;12521;43.310;21.876;2023-02-03T07:15:18;3.4;96.0
22676;DHT22;12521;43.310;21.876;2023-02-03T07:19:54;3.6;96.0
22676;DHT22;12521;43.310;21.876;2023-02-03T07:24:30;3.6;96.0
22676;DHT22;12521;43.310;21.876;2023-02-03T07:29:07;3.7;96.0
22676;DHT22;12521;43.310;21.876;2023-02-03T07:33:44;3.7;96.0
22676;DHT22;12521;43.310;21.876;2023-02-03T07:38:21;3.8;96.0
22676;DHT22;12521;43.310;21.876;2023-02-03T07:43:01;3.8;96.0
22676;DHT22;12521;43.310;21.876;2023-02-03T07:47:39;3.9;96.0
22676;DHT22;12521;43.310;21.876;2023-02-03T07:52:18;3.9;96.0
22676;DHT22;12521;43.310;21.876;2023-02-03T07:56:54;3.9;96.0
22676;DHT22;12521;43.310;21.876;2023-02-03T08:01:31;4.0;96.0
22676;DHT22;12521;43.310;21.876;2023-02-03T08:06:08;4.0;96.0
22676;DHT22;12521;43.310;21.876;2023-02-03T08:10:45;4.1;96.0
22676;DHT22;12521;43.310;21.876;2023-02-03T08:15:22;4.1;96.0
22676;DHT22;12521;43.310;21.876;2023-02-03T08:19:59;4.2;96.0
22676;DHT22;12521;43.310;21.876;2023-02-03T08:24:36;4.2;96.0
22676;DHT22;12521;43.310;21.876;2023-02-03T08:29:12;4.2;96.0
22676;DHT22;12521;43.310;21.876;2023-02-03T08:33:49;4.2;96.0
22676;DHT22;12521;43.310;21.876;2023-02-03T08:38:25;4.2;96.0
22676;DHT22;12521;43.310;21.876;2023-02-03T08:43:02;4.2;96.0
22676;DHT22;12521;43.310;21.876;2023-02-03T08:47:38;4.3;96.0
22676;DHT22;12521;43.310;21.876;2023-02-03T08:52:15;4.3;96.0
22676;DHT22;12521;43.310;21.876;2023-02-03T08:56:52;4.3;96.0
22676;DHT22;12521;43.310;21.876;2023-02-03T09:01:29;4.4;96.0
22676;DHT22;12521;43.310;21.876;2023-02-03T09:06:08;4.4;96.0
22676;DHT22;12521;43.310;21.876;2023-02-03T09:10:46;4.5;96.0
22676;DHT22;12521;43.310;21.876;2023-02-03T09:15:22;4.5;96.0
22676;DHT22;12521;43.310;21.876;2023-02-03T09:19:58;4.6;96.0
22676;DHT22;12521;43.310;21.876;2023-02-03T09:24:35;4.6;96.0
22676;DHT22;12521;43.310;21.876;2023-02-03T09:29:11;4.7;96.0
22676;DHT22;12521;43.310;21.876;2023-02-03T09:33:47;4.7;96.0
22676;DHT22;12521;43.310;21.876;2023-02-03T09:38:26;4.8;96.0
22676;DHT22;12521;43.310;21.876;2023-02-03T09:43:27;4.8;96.0
22676;DHT22;12521;43.310;21.876;2023-02-03T09:48:22;5.0;96.0
22676;DHT22;12521;43.310;21.876;2023-02-03T09:53:26;5.0;96.0
22676;DHT22;12521;43.310;21.876;2023-02-03T09:58:17;5.1;96.0
22676;DHT22;12521;43.310;21.876;2023-02-03T10:03:06;5.1;96.0
22676;DHT22;12521;43.310;21.876;2023-02-03T10:08:20;5.2;96.0
22676;DHT22;12521;43.310;21.876;2023-02-03T10:13:26;5.2;96.0
22676;DHT22;12521;43.310;21.876;2023-02-03T10:18:18;5.2;96.0
22676;DHT22;12521;43.310;21.876;2023-02-03T10:23:13;5.2;96.0
22676;DHT22;12521;43.310;21.876;2023-02-03T10:28:15;5.3;96.0
22676;DHT22;12521;43.310;21.876;2023-02-03T10:33:10;5.3;96.0
22676;DHT22;12521;43.310;21.876;2023-02-03T10:37:57;5.2;96.0
22676;DHT22;12521;43.310;21.876;2023-02-03T10:42:34;5.2;96.0
22676;DHT22;12521;43.310;21.876;2023-02-03T10:47:26;5.0;96.0
22676;DHT22;12521;43.310;21.876;2023-02-03T10:52:27;5.0;96.0
22676;DHT22;12521;43.310;21.876;2023-02-03T10:57:14;5.2;96.0
22676;DHT22;12521;43.310;21.876;2023-02-03T11:01:50;5.2;96.0
22676;DHT22;12521;43.310;21.876;2023-02-03T11:06:27;5.2;96.0
22676;DHT22;12521;43.310;21.876;2023-02-03T11:11:09;5.3;96.0
22676;DHT22;12521;43.310;21.876;2023-02-03T11:15:56;5.3;96.0
22676;DHT22;12521;43.310;21.876;2023-02-03T11:20:36;5.2;96.0
22676;DHT22;12521;43.310;21.876;2023-02-03T11:25:21;5.2;96.0
22676;DHT22;12521;43.310;21.876;2023-02-03T11:30:17;5.2;96.0
22676;DHT22;12521;43.310;21.876;2023-02-03T11:35:15;5.2;96.0
22676;DHT22;12521;43.310;21.876;2023-02-03T11:40:24;5.4;96.0
22676;DHT22;12521;43.310;21.876;2023-02-03T11:45:16;5.4;96.0
22676;DHT22;12521;43.310;21.876;2023-02-03T11:50:28;5.6;96.0
22676;DHT22;12521;43.310;21.876;2023-02-03T11:55:41;5.6;96.0
22676;DHT22;12521;43.310;21.876;2023-02-03T12:01:14;5.8;96.0
22676;DHT22;12521;43.310;21.876;2023-02-03T12:07:21;5.8;96.0
22676;DHT22;12521;43.310;21.876;2023-02-03T12:12:50;5.9;96.0
22676;DHT22;12521;43.310;21.876;2023-02-03T12:18:15;6.0;96.0
22676;DHT22;12521;43.310;21.876;2023-02-03T12:23:50;6.0;96.0
22676;DHT22;12521;43.310;21.876;2023-02-03T12:29:00;6.0;96.0
22676;DHT22;12521;43.310;21.876;2023-02-03T12:33:57;6.0;96.0
22676;DHT22;12521;43.310;21.876;2023-02-03T12:39:01;6.0;96.0
22676;DHT22;12521;43.310;21.876;2023-02-03T12:44:00;6.0;96.0
22676;DHT22;12521;43.310;21.876;2023-02-03T12:49:04;6.1;96.0
22676;DHT22;12521;43.310;21.876;2023-02-03T12:54:17;6.1;96.0
22676;DHT22;12521;43.310;21.876;2023-02-03T12:59:18;6.2;96.0
22676;DHT22;12521;43.310;21.876;2023-02-03T13:04:07;6.2;96.0
22676;DHT22;12521;43.310;21.876;2023-02-03T13:09:16;6.4;96.0
22676;DHT22;12521;43.310;21.876;2023-02-03T13:14:21;6.4;96.0
22676;DHT22;12521;43.310;21.876;2023-02-03T13:19:20;6.4;96.0
22676;DHT22;12521;43.310;21.876;2023-02-03T13:24:16;6.4;96.0
22676;DHT22;12521;43.310;21.876;2023-02-03T13:29:26;6.3;96.0
22676;DHT22;12521;43.310;21.876;2023-02-03T13:35:24;6.3;96.0
22676;DHT22;12521;43.310;21.876;2023-02-03T13:41:02;6.2;96.0
22676;DHT22;12521;43.310;21.876;2023-02-03T13:46:05;6.2;96.0
22676;DHT22;12521;43.310;21.876;2023-02-03T13:51:11;6.2;96.0
22676;DHT22;12521;43.310;21.876;2023-02-03T13:55:59;6.2;96.0
22676;DHT22;12521;43.310;21.876;2023-02-03T14:01:06;6.2;96.0
22676;DHT22;12521;43.310;21.876;2023-02-03T14:06:56;6.2;96.0
22676;DHT22;12521;43.310;21.876;2023-02-03T14:11:45;6.1;96.0
22676;DHT22;12521;43.310;21.876;2023-02-03T14:16:33;6.1;96.0
22676;DHT22;12521;43.310;21.876;2023-02-03T14:21:18;6.0;96.0
22676;DHT22;12521;43.310;21.876;2023-02-03T14:26:01;6.0;96.0
22676;DHT22;12521;43.310;21.876;2023-02-03T14:32:53;6.0;96.0
22676;DHT22;12521;43.310;21.876;2023-02-03T14:37:38;6.0;96.0
22676;DHT22;12521;43.310;21.876;2023-02-03T14:42:58;6.0;96.0
22676;DHT22;12521;43.310;21.876;2023-02-03T14:48:39;5.9;96.0
22676;DHT22;12521;43.310;21.876;2023-02-03T14:54:26;5.9;96.0
22676;DHT22;12521;43.310;21.876;2023-02-03T14:59:47;5.9;96.0
22676;DHT22;12521;43.310;21.876;2023-02-03T15:04:33;5.9;96.0
22676;DHT22;12521;43.310;21.876;2023-02-03T15:09:29;5.9;96.0
22676;DHT22;12521;43.310;21.876;2023-02-03T15:14:21;5.9;96.0
22676;DHT22;12521;43.310;21.876;2023-02-03T15:19:00;5.8;96.0
22676;DHT22;12521;43.310;21.876;2023-02-03T15:23:41;5.8;96.0
22676;DHT22;12521;43.310;21.876;2023-02-03T15:28:26;5.7;96.0
22676;DHT22;12521;43.310;21.876;2023-02-03T15:33:12;5.7;96.0
22676;DHT22;12521;43.310;21.876;2023-02-03T15:38:01;5.6;96.0
22676;DHT22;12521;43.310;21.876;2023-02-03T15:42:57;5.6;96.0
22676;DHT22;12521;43.310;21.876;2023-02-03T15:47:56;5.5;96.0
22676;DHT22;12521;43.310;21.876;2023-02-03T15:52:50;5.5;96.0
22676;DHT22;12521;43.310;21.876;2023-02-03T15:57:37;5.4;96.0
22676;DHT22;12521;43.310;21.876;2023-02-03T16:02:20;5.4;96.0
22676;DHT22;12521;43.310;21.876;2023-02-03T16:07:15;5.4;96.0
22676;DHT22;12521;43.310;21.876;2023-02-03T16:12:16;5.3;96.0
22676;DHT22;12521;43.310;21.876;2023-02-03T16:16:59;5.3;96.0
22676;DHT22;12521;43.310;21.876;2023-02-03T16:21:52;5.2;96.0
22676;DHT22;12521;43.310;21.876;2023-02-03T16:26:33;5.2;96.0
22676;DHT22;12521;43.310;21.876;2023-02-03T16:31:15;5.2;96.0
22676;DHT22;12521;43.310;21.876;2023-02-03T16:36:01;5.2;96.0
22676;DHT22;12521;43.310;21.876;2023-02-03T16:40:48;5.2;96.0
22676;DHT22;12521;43.310;21.876;2023-02-03T16:45:25;5.2;96.0
22676;DHT22;12521;43.310;21.876;2023-02-03T16:50:01;5.1;96.0
22676;DHT22;12521;43.310;21.876;2023-02-03T16:54:38;5.1;96.0
22676;DHT22;12521;43.310;21.876;2023-02-03T16:59:14;5.0;96.0
22676;DHT22;12521;43.310;21.876;2023-02-03T17:03:50;5.0;96.0
22676;DHT22;12521;43.310;21.876;2023-02-03T17:08:27;5.0;96.0
22676;DHT22;12521;43.310;21.876;2023-02-03T17:13:04;5.0;96.0
22676;DHT22;12521;43.310;21.876;2023-02-03T17:17:42;5.0;96.0
22676;DHT22;12521;43.310;21.876;2023-02-03T17:22:18;5.0;96.0
22676;DHT22;12521;43.310;21.876;2023-02-03T17:26:55;5.0;96.0
22676;DHT22;12521;43.310;21.876;2023-02-03T17:31:31;4.9;96.0
22676;DHT22;12521;43.310;21.876;2023-02-03T17:36:13;4.9;96.0
22676;DHT22;12521;43.310;21.876;2023-02-03T17:40:55;4.8;96.0
22676;DHT22;12521;43.310;21.876;2023-02-03T17:45:31;4.8;96.0
22676;DHT22;12521;43.310;21.876;2023-02-03T17:50:09;4.8;96.0
22676;DHT22;12521;43.310;21.876;2023-02-03T17:54:45;4.8;96.0
22676;DHT22;12521;43.310;21.876;2023-02-03T17:59:22;4.8;96.0
22676;DHT22;12521;43.310;21.876;2023-02-03T18:04:03;4.8;96.0
22676;DHT22;12521;43.310;21.876;2023-02-03T18:08:42;4.7;96.0
22676;DHT22;12521;43.310;21.876;2023-02-03T18:13:19;4.7;96.0
22676;DHT22;12521;43.310;21.876;2023-02-03T18:17:56;4.6;96.0
22676;DHT22;12521;43.310;21.876;2023-02-03T18:22:33;4.6;96.0
22676;DHT22;12521;43.310;21.876;2023-02-03T18:27:10;4.6;96.0
22676;DHT22;12521;43.310;21.876;2023-02-03T18:31:47;4.6;96.0
22676;DHT22;12521;43.310;21.876;2023-02-03T18:36:23;4.6;96.0
22676;DHT22;12521;43.310;21.876;2023-02-03T18:41:04;4.6;96.0
22676;DHT22;12521;43.310;21.876;2023-02-03T18:45:48;4.6;96.0
22676;DHT22;12521;43.310;21.876;2023-02-03T18:50:25;4.6;96.0
22676;DHT22;12521;43.310;21.876;2023-02-03T18:55:02;4.6;96.0
22676;DHT22;12521;43.310;21.876;2023-02-03T18:59:40;4.6;96.0
22676;DHT22;12521;43.310;21.876;2023-02-03T19:04:17;4.6;96.0
22676;DHT22;12521;43.310;21.876;2023-02-03T19:08:53;4.6;96.0
22676;DHT22;12521;43.310;21.876;2023-02-03T19:13:29;4.6;96.0
22676;DHT22;12521;43.310;21.876;2023-02-03T19:18:05;4.6;96.0
22676;DHT22;12521;43.310;21.876;2023-02-03T19:22:42;4.6;96.0
22676;DHT22;12521;43.310;21.876;2023-02-03T19:27:18;4.6;96.0
22676;DHT22;12521;43.310;21.876;2023-02-03T19:31:54;4.5;96.0
22676;DHT22;12521;43.310;21.876;2023-02-03T19:36:30;4.5;96.0
22676;DHT22;12521;43.310;21.876;2023-02-03T19:41:08;4.5;96.0
22676;DHT22;12521;43.310;21.876;2023-02-03T19:45:45;4.5;96.0
22676;DHT22;12521;43.310;21.876;2023-02-03T19:50:22;4.5;96.0
22676;DHT22;12521;43.310;21.876;2023-02-03T19:54:59;4.5;96.0
22676;DHT22;12521;43.310;21.876;2023-02-03T19:59:35;4.5;96.0
22676;DHT22;12521;43.310;21.876;2023-02-03T20:04:12;4.5;96.0
22676;DHT22;12521;43.310;21.876;2023-02-03T20:18:06;4.4;96.0
22676;DHT22;12521;43.310;21.876;2023-02-03T20:22:42;4.4;96.0
22676;DHT22;12521;43.310;21.876;2023-02-03T20:27:19;4.4;96.0
22676;DHT22;12521;43.310;21.876;2023-02-03T20:31:55;4.4;96.0
22676;DHT22;12521;43.310;21.876;2023-02-03T20:36:32;4.4;96.0
22676;DHT22;12521;43.310;21.876;2023-02-03T20:41:11;4.4;96.0
22676;DHT22;12521;43.310;21.876;2023-02-03T20:45:50;4.4;96.0
22676;DHT22;12521;43.310;21.876;2023-02-03T20:50:27;4.5;96.0
22676;DHT22;12521;43.310;21.876;2023-02-03T20:55:17;4.5;96.0
22676;DHT22;12521;43.310;21.876;2023-02-03T20:59:56;4.5;96.0
22676;DHT22;12521;43.310;21.876;2023-02-03T21:04:32;4.5;96.0
22676;DHT22;12521;43.310;21.876;2023-02-03T21:09:21;4.5;96.0
22676;DHT22;12521;43.310;21.876;2023-02-03T21:13:59;4.5;96.0
22676;DHT22;12521;43.310;21.876;2023-02-03T21:18:50;4.5;96.0
22676;DHT22;12521;43.310;21.876;2023-02-03T21:23:43;4.5;96.0
22676;DHT22;12521;43.310;21.876;2023-02-03T21:28:31;4.5;96.0
22676;DHT22;12521;43.310;21.876;2023-02-03T21:33:39;4.5;96.0
22676;DHT22;12521;43.310;21.876;2023-02-03T21:38:31;4.6;96.0
22676;DHT22;12521;43.310;21.876;2023-02-03T21:43:21;4.6;96.0
22676;DHT22;12521;43.310;21.876;2023-02-03T21:47:58;4.6;96.0
22676;DHT22;12521;43.310;21.876;2023-02-03T21:52:35;4.6;96.0
22676;DHT22;12521;43.310;21.876;2023-02-03T21:57:13;4.6;96.0
22676;DHT22;12521;43.310;21.876;2023-02-03T22:01:50;4.6;96.0
22676;DHT22;12521;43.310;21.876;2023-02-03T22:06:42;4.6;96.0
22676;DHT22;12521;43.310;21.876;2023-02-03T22:11:27;4.7;96.0
22676;DHT22;12521;43.310;21.876;2023-02-03T22:16:07;4.7;96.0
22676;DHT22;12521;43.310;21.876;2023-02-03T22:20:44;4.8;96.0
22676;DHT22;12521;43.310;21.876;2023-02-03T22:25:20;4.8;96.0
22676;DHT22;12521;43.310;21.876;2023-02-03T22:29:56;4.8;96.0
22676;DHT22;12521;43.310;21.876;2023-02-03T22:34:33;4.8;96.0
22676;DHT22;12521;43.310;21.876;2023-02-03T22:39:09;4.8;96.0
22676;DHT22;12521;43.310;21.876;2023-02-03T22:43:46;4.8;96.0
22676;DHT22;12521;43.310;21.876;2023-02-03T22:48:23;4.9;96.0
22676;DHT22;12521;43.310;21.876;2023-02-03T22:53:00;4.9;96.0
22676;DHT22;12521;43.310;21.876;2023-02-03T22:57:37;4.9;96.0
22676;DHT22;12521;43.310;21.876;2023-02-03T23:02:14;4.8;96.0
22676;DHT22;12521;43.310;21.876;2023-02-03T23:06:51;4.8;96.0
22676;DHT22;12521;43.310;21.876;2023-02-03T23:11:27;4.8;96.0
22676;DHT22;12521;43.310;21.876;2023-02-03T23:16:05;4.8;96.0
22676;DHT22;12521;43.310;21.876;2023-02-03T23:20:41;4.8;96.0
22676;DHT22;12521;43.310;21.876;2023-02-03T23:25:18;4.8;96.0
22676;DHT22;12521;43.310;21.876;2023-02-03T23:29:54;4.7;96.0
22676;DHT22;12521;43.310;21.876;2023-02-03T23:34:31;4.7;96.0
22676;DHT22;12521;43.310;21.876;2023-02-03T23:39:09;4.6;96.0
22676;DHT22;12521;43.310;21.876;2023-02-03T23:43:45;4.6;96.0
22676;DHT22;12521;43.310;21.876;2023-02-03T23:48:22;4.6;96.0
22676;DHT22;12521;43.310;21.876;2023-02-03T23:52:58;4.6;96.0
22676;DHT22;12521;43.310;21.876;2023-02-03T23:57:35;4.6;96.0
